Taos, NM

9:43 AM MST on December 21, 2014 (GMT -0700)
Canon | Change Station
CLOSE
Current Station
Personal Weather Station
Location: Taos, NM
Elevation: 7001 ft
Nearby Weather Stations

Elev 7001 ft 36.39 °N, 105.56 °W | Updated 13 minutes ago

Partly Cloudy
Partly Cloudy
40.3 °F
Feels Like 40 °F
N
2.7
Wind Variable Wind from NNW

Today
High -- | Low -- °F
--% Chance of Precip.
Yesterday
High -- | Low -- °F
Precip. -- in
7:10 AM 4:50 PM
Waning Crescent, 0% visible
Pressure 30.01 in
Visibility 10.0 miles
Clouds Clear
Windchill 40 °F
Dew Point 28 °F
Humidity 60%
Rainfall 0.00 in
Snow Depth Not available.
UV 2 out of 12
Pollen .10 out of 12
Air Quality Not available.
Flu Activity Not available.
METAR KSKX 211635Z AUTO 22011KT 10SM CLR 01/M05 A3001 RMK AO1

More Conditions Fewer Conditions

Pressure 30.01 in
Visibility 10.0 miles
Clouds Clear
Windchill 40 °F
Dew Point 28 °F
Humidity 60%
Rainfall 0.00 in
Snow Depth Not available.
UV 2 out of 12
Pollen .10 out of 12
Air Quality Not available.
Flu Activity Not available.
METAR KSKX 211635Z AUTO 22011KT 10SM CLR 01/M05 A3001 RMK AO1

More Conditions Fewer Conditions

10-Day Weather Forecast

Almanac

Astronomy

Dec. 21, 2014 Rise Set
Actual Time
Civil Twilight
Nautical Twilight
Astronomical Twilight
Moon
Length of Visible Light
Length of Day
Tomorrow will be .
, % of the Moon is Illuminated

Today's Extremes

State Highs State Lows

Community

WunderPhotos

Upload Photos

1,779,433 photos uploaded!

WunderBlogs® & News

Nearby

Air Quality

  Air Quality AQ Index Pollutant
Not available.

Snow Depth

Station Depth Elevation

Earthquake Activity

City Distance Mag. Time & Date
Minimum magnitude displayed is 2.5.

Coastal Water Temperatures

Place Temperature

Nearby Weather Stations